Pelham, Texas
Current Conditions -  °F | °C
As of 12:53 PM on Sunday 23 Nov 2014 (Local Time) from KCNW Reporting Station
Clear Clear  
Wind Chill: 24°   Ceiling: Unl
Heat Index: 24°   Visibility: 10mi
Dew Point:   Wind: 17mph
Humidity: 34%   Direction: 220°SW
Pressure: 29.47"   Gusts: 23mph
Location:  31.8345°N, 96.8135°W
Report Text: KCNW 231853Z 22015G20KT 10SM SKC 24/07 A2947
Loading
Personal Weather Stations






























Interactive Weather Map New forecast layout! Learn more

10-Day Weather Forecast

Advertisements
Track Severe Weather on mobile